Time;durP1;ratioP1;P1;durP2;ratioP2;P2;SDS_P1;SDS_P2;PMS_P1;PMS_P2;Temp;Humidity;BMP_temperature;BMP_pressure;BME280_temperature;BME280_humidity;BME280_pressure;Samples;Min_cycle;Max_cycle;Signal;HPM_P1;HPM_P2
2022/02/08 00:00:58;;;;;;;21.03;3.43;;;2.80;99.90;;;;;;5016524;28;20182;-93
2022/02/08 00:03:24;;;;;;;11.67;2.70;;;2.80;99.90;;;;;;5016318;28;20233;-93
2022/02/08 00:08:31;;;;;;;12.30;2.93;;;2.80;99.90;;;;;;5017601;28;20180;-92
2022/02/08 00:10:57;;;;;;;19.90;3.10;;;2.80;99.90;;;;;;5016435;28;20177;-93
2022/02/08 00:13:23;;;;;;;12.87;2.87;;;2.80;99.90;;;;;;5013317;28;20222;-92
2022/02/08 00:15:48;;;;;;;15.07;3.23;;;2.90;99.90;;;;;;5012866;28;20242;-93
2022/02/08 00:18:14;;;;;;;9.90;2.93;;;2.90;99.90;;;;;;5012852;28;20207;-93
2022/02/08 00:20:40;;;;;;;14.50;3.30;;;2.90;99.90;;;;;;5013042;28;20180;-94
2022/02/08 00:23:06;;;;;;;10.77;3.17;;;2.90;99.90;;;;;;5013021;28;20263;-94
2022/02/08 00:25:31;;;;;;;15.07;3.57;;;3.00;99.90;;;;;;5012632;28;20184;-96
2022/02/08 00:27:57;;;;;;;17.07;3.53;;;3.00;99.90;;;;;;5012795;28;20746;-93
2022/02/08 00:30:23;;;;;;;17.00;3.53;;;3.00;99.90;;;;;;5012553;28;20232;-94
2022/02/08 00:32:49;;;;;;;10.53;3.30;;;3.00;99.90;;;;;;5012829;28;20199;-94
2022/02/08 00:35:14;;;;;;;15.23;3.97;;;3.00;99.90;;;;;;5012757;28;20192;-93
2022/02/08 00:37:41;;;;;;;12.93;3.13;;;3.10;99.90;;;;;;5014032;28;20172;-92
2022/02/08 00:40:08;;;;;;;13.50;3.23;;;3.00;99.90;;;;;;4996311;28;20203;-94
2022/02/08 00:42:35;;;;;;;14.37;3.70;;;3.00;99.90;;;;;;4996037;28;20226;-93
2022/02/08 00:47:40;;;;;;;14.73;3.70;;;3.00;99.90;;;;;;4997579;28;20160;-93
2022/02/08 00:50:09;;;;;;;15.13;3.50;;;3.00;99.90;;;;;;4996553;28;20200;-94
2022/02/08 00:52:37;;;;;;;11.87;3.07;;;3.00;99.90;;;;;;4996154;28;20391;-95
2022/02/08 00:55:06;;;;;;;12.90;3.27;;;3.00;99.90;;;;;;5009495;28;20270;-95
2022/02/08 00:57:34;;;;;;;10.90;3.00;;;3.00;99.90;;;;;;5032331;28;20190;-93
2022/02/08 01:00:00;;;;;;;10.20;3.77;;;3.00;99.90;;;;;;5015452;28;20654;-94
2022/02/08 01:02:27;;;;;;;16.53;3.67;;;3.00;99.90;;;;;;5031188;28;20188;-94
2022/02/08 01:04:58;;;;;;;12.80;2.77;;;3.00;99.90;;;;;;5031871;28;20210;-94
2022/02/08 01:07:32;;;;;;;17.07;3.80;;;3.00;99.90;;;;;;5015291;28;20530;-94
2022/02/08 01:10:00;;;;;;;13.90;2.93;;;3.00;99.90;;;;;;5031709;28;20230;-93
2022/02/08 01:12:32;;;;;;;13.13;2.83;;;3.00;99.90;;;;;;5016282;28;20254;-93
2022/02/08 01:14:59;;;;;;;13.03;3.07;;;3.00;99.90;;;;;;5031709;28;20171;-93
2022/02/08 01:17:27;;;;;;;10.90;2.53;;;3.00;99.90;;;;;;5031583;28;20183;-95
2022/02/08 01:20:05;;;;;;;8.73;2.30;;;3.00;99.90;;;;;;5015156;28;20213;-95
2022/02/08 01:22:32;;;;;;;5.17;2.00;;;3.10;99.90;;;;;;5031558;28;20222;-92
2022/02/08 01:24:57;;;;;;;12.53;2.80;;;3.20;99.90;;;;;;5031754;28;20179;-94
2022/02/08 01:27:30;;;;;;;11.23;2.60;;;3.20;99.90;;;;;;5015177;28;20317;-93
2022/02/08 01:29:59;;;;;;;7.63;1.97;;;3.20;99.90;;;;;;5014922;28;20219;-94
2022/02/08 01:37:59;;;;;;;7.47;1.93;;;3.30;99.90;;;;;;5016396;28;20240;-93
2022/02/08 01:40:46;;;;;;;10.33;1.97;;;3.30;99.90;;;;;;5014894;28;20190;-93
2022/02/08 01:51:05;;;;;;;11.87;2.27;;;3.50;99.90;;;;;;5015868;28;20159;-94
2022/02/08 01:53:31;;;;;;;10.27;1.73;;;3.50;99.90;;;;;;5030665;28;20183;-96
2022/02/08 01:55:57;;;;;;;13.10;2.30;;;3.60;99.90;;;;;;5014541;28;20179;-92
2022/02/08 01:58:29;;;;;;;10.80;2.07;;;3.60;99.90;;;;;;5014273;28;20202;-94
2022/02/08 02:00:54;;;;;;;14.30;2.30;;;3.50;99.90;;;;;;5014565;28;20563;-93
2022/02/08 02:03:20;;;;;;;11.43;2.37;;;3.60;99.90;;;;;;5014495;28;20175;-93
2022/02/08 02:05:48;;;;;;;8.50;2.40;;;3.60;99.90;;;;;;5014671;28;20618;-93
2022/02/08 02:08:14;;;;;;;7.90;1.60;;;3.50;99.90;;;;;;5014143;28;20607;-92
2022/02/08 02:10:40;;;;;;;9.57;2.37;;;3.60;99.90;;;;;;5014496;28;20221;-93
2022/02/08 02:13:12;;;;;;;8.00;1.97;;;3.60;99.90;;;;;;5014002;28;20179;-94
2022/02/08 02:15:39;;;;;;;12.70;2.37;;;3.60;99.90;;;;;;5014336;28;20263;-93
2022/02/08 02:18:11;;;;;;;6.60;1.83;;;3.50;99.90;;;;;;5014130;28;20186;-93
2022/02/08 02:20:37;;;;;;;10.47;2.53;;;3.60;99.90;;;;;;5014299;28;20250;-93
2022/02/08 02:23:03;;;;;;;12.70;2.60;;;3.60;99.90;;;;;;5014106;28;20198;-93
2022/02/08 02:25:32;;;;;;;11.07;2.67;;;3.60;99.90;;;;;;5014292;28;20191;-94
2022/02/08 02:28:06;;;;;;;13.37;2.83;;;3.60;99.90;;;;;;5030759;28;20180;-94
2022/02/08 02:30:34;;;;;;;8.77;2.60;;;3.70;99.90;;;;;;5014173;28;20233;-93
2022/02/08 02:33:01;;;;;;;12.50;2.63;;;3.70;99.90;;;;;;5030794;28;20229;-95
2022/02/08 02:35:27;;;;;;;12.50;3.10;;;3.80;99.90;;;;;;5030553;28;20176;-94
2022/02/08 02:37:58;;;;;;;8.70;3.10;;;3.80;99.90;;;;;;5030598;28;20187;-96
2022/02/08 02:40:24;;;;;;;12.63;3.73;;;3.80;99.90;;;;;;5014237;28;20278;-93
2022/02/08 02:42:51;;;;;;;12.33;3.47;;;3.90;99.90;;;;;;5030752;28;20183;-94
2022/02/08 02:45:19;;;;;;;11.67;4.03;;;3.90;99.90;;;;;;5031099;28;20187;-92
2022/02/08 02:47:45;;;;;;;11.57;4.00;;;4.00;99.90;;;;;;5030713;28;20214;-93
2022/02/08 02:50:11;;;;;;;13.67;4.37;;;4.00;99.90;;;;;;5030513;28;20218;-94
2022/02/08 02:52:37;;;;;;;13.83;4.20;;;4.00;99.90;;;;;;5013969;28;20539;-94
2022/02/08 02:55:04;;;;;;;10.67;4.07;;;4.00;99.90;;;;;;5014006;28;20202;-94
2022/02/08 02:57:30;;;;;;;15.70;4.50;;;4.00;99.90;;;;;;5014122;28;20175;-94
2022/02/08 03:00:05;;;;;;;11.77;4.53;;;4.10;99.90;;;;;;5014348;28;20217;-93
2022/02/08 03:02:49;;;;;;;13.30;4.60;;;4.10;99.90;;;;;;5014077;28;20163;-94
2022/02/08 03:05:39;;;;;;;14.00;4.50;;;4.10;99.90;;;;;;5013946;28;20171;-92
2022/02/08 03:19:10;;;;;;;20.70;5.20;;;4.30;99.90;;;;;;5015010;28;20693;-93
2022/02/08 03:21:35;;;;;;;16.53;5.27;;;4.30;99.90;;;;;;5013862;28;20183;-93
2022/02/08 03:24:01;;;;;;;16.77;5.13;;;4.40;99.90;;;;;;5013574;28;20197;-94
2022/02/08 03:26:27;;;;;;;14.47;5.20;;;4.40;99.90;;;;;;5017233;28;20241;-93
2022/02/08 03:29:01;;;;;;;24.17;5.93;;;4.40;99.90;;;;;;5017035;28;20183;-93
2022/02/08 03:31:26;;;;;;;18.77;5.00;;;4.50;99.90;;;;;;5017204;28;20630;-93
2022/02/08 03:33:52;;;;;;;20.77;5.80;;;4.50;99.90;;;;;;5017229;28;20187;-94
2022/02/08 03:41:52;;;;;;;14.80;4.77;;;4.40;99.90;;;;;;4979625;28;20208;-96
2022/02/08 03:44:23;;;;;;;15.57;5.57;;;4.50;99.90;;;;;;4996882;28;20176;-95
2022/02/08 03:46:49;;;;;;;16.50;5.37;;;4.40;99.90;;;;;;4997800;28;20168;-95
2022/02/08 03:49:16;;;;;;;19.23;5.27;;;4.50;99.90;;;;;;4997829;28;20183;-95
2022/02/08 03:51:51;;;;;;;16.40;5.53;;;4.40;99.90;;;;;;4997552;28;20500;-96
2022/02/08 03:54:18;;;;;;;17.67;5.53;;;4.40;99.90;;;;;;4997326;28;20176;-95
2022/02/08 03:56:44;;;;;;;19.00;5.63;;;4.40;99.90;;;;;;4998449;28;20192;-94
2022/02/08 03:59:17;;;;;;;19.53;6.20;;;4.40;99.90;;;;;;4985013;28;20663;-96
2022/02/08 04:04:34;;;;;;;22.93;6.10;;;4.30;99.90;;;;;;4998627;28;20222;-95
2022/02/08 04:07:07;;;;;;;20.37;6.20;;;4.20;99.90;;;;;;4998759;28;20631;-95
2022/02/08 04:09:34;;;;;;;19.80;6.30;;;4.20;99.90;;;;;;4999222;28;20183;-94
2022/02/08 04:12:05;;;;;;;18.97;5.93;;;4.20;99.90;;;;;;4999117;28;20188;-95
2022/02/08 04:14:45;;;;;;;18.70;6.20;;;4.20;99.90;;;;;;4998588;28;20180;-95
2022/02/08 04:17:29;;;;;;;21.63;6.43;;;4.20;99.90;;;;;;4997827;28;20182;-95
2022/02/08 04:34:09;;;;;;;25.20;8.10;;;4.00;99.90;;;;;;4998312;28;20889;-96
2022/02/08 04:41:44;;;;;;;17.77;6.77;;;3.90;99.90;;;;;;4999096;28;20171;-95
2022/02/08 04:44:21;;;;;;;26.03;7.30;;;3.90;99.90;;;;;;4997454;28;20599;-95
2022/02/08 04:49:20;;;;;;;23.17;7.87;;;3.90;99.90;;;;;;4998276;28;20630;-96
2022/02/08 04:51:59;;;;;;;20.83;7.43;;;3.90;99.90;;;;;;4997636;28;20170;-96
2022/02/08 04:54:42;;;;;;;18.93;6.87;;;3.90;99.90;;;;;;4997342;28;20180;-96
2022/02/08 04:57:27;;;;;;;23.03;7.00;;;3.90;99.90;;;;;;4996430;28;20278;-96
2022/02/08 05:36:15;;;;;;;21.73;6.87;;;4.30;99.90;;;;;;4974973;28;20188;-95
2022/02/08 05:42:08;;;;;;;15.87;7.17;;;4.40;99.90;;;;;;5003249;28;20191;-95
2022/02/08 05:44:41;;;;;;;17.50;7.50;;;4.40;99.90;;;;;;5003791;28;20525;-96
2022/02/08 05:47:08;;;;;;;17.13;7.40;;;4.40;99.90;;;;;;5000555;28;20224;-95
2022/02/08 05:49:49;;;;;;;18.80;8.20;;;4.40;99.90;;;;;;4999064;28;20207;-96
2022/02/08 05:54:42;;;;;;;16.90;7.50;;;4.50;99.90;;;;;;5002717;28;20175;-96
2022/02/08 05:57:10;;;;;;;17.23;7.63;;;4.50;99.90;;;;;;5002492;28;20247;-96
2022/02/08 05:59:39;;;;;;;16.83;7.67;;;4.50;99.90;;;;;;4984934;28;20291;-96
2022/02/08 06:02:05;;;;;;;19.50;8.20;;;4.50;99.90;;;;;;4997944;28;20179;-96
2022/02/08 06:04:35;;;;;;;20.23;8.13;;;4.50;99.90;;;;;;4996486;28;20226;-95
2022/02/08 06:07:02;;;;;;;15.77;8.03;;;4.60;99.90;;;;;;4996931;28;20180;-96
2022/02/08 06:09:36;;;;;;;15.13;8.20;;;4.60;99.90;;;;;;4999826;28;20275;-96
2022/02/08 06:12:02;;;;;;;17.33;8.80;;;4.60;99.90;;;;;;5001706;28;20668;-96
2022/02/08 06:14:30;;;;;;;13.93;8.30;;;4.60;99.90;;;;;;5001850;28;20184;-95
2022/02/08 06:16:56;;;;;;;14.93;8.03;;;4.70;99.90;;;;;;5005117;28;20199;-95
2022/02/08 06:19:29;;;;;;;15.27;8.10;;;4.70;99.90;;;;;;5015978;28;20286;-96
2022/02/08 06:21:55;;;;;;;15.70;8.77;;;4.70;99.90;;;;;;5024640;28;20266;-96
2022/02/08 06:24:21;;;;;;;13.77;9.20;;;4.70;99.90;;;;;;5012650;28;20196;-96
2022/02/08 06:26:46;;;;;;;17.30;9.20;;;4.70;99.90;;;;;;5005543;28;20176;-96
2022/02/08 06:29:16;;;;;;;15.27;8.90;;;4.70;99.90;;;;;;5004913;28;20180;-96
2022/02/08 06:31:44;;;;;;;16.07;9.40;;;4.80;99.90;;;;;;5005655;28;20282;-95
2022/02/08 06:34:14;;;;;;;12.33;8.70;;;4.80;99.90;;;;;;5003892;28;20187;-96
2022/02/08 06:36:41;;;;;;;15.97;8.90;;;4.80;99.90;;;;;;5004515;28;20172;-96
2022/02/08 06:39:06;;;;;;;15.57;9.13;;;4.80;99.90;;;;;;5003852;28;20216;-95
2022/02/08 06:41:33;;;;;;;14.63;9.10;;;4.80;99.90;;;;;;5006451;28;20187;-96
2022/02/08 06:44:01;;;;;;;11.80;9.50;;;4.90;99.90;;;;;;5019849;28;20582;-96
2022/02/08 06:46:29;;;;;;;13.20;8.47;;;4.90;99.90;;;;;;5016508;28;20180;-96
2022/02/08 06:48:55;;;;;;;12.37;8.03;;;4.90;99.90;;;;;;5002715;28;20188;-96
2022/02/08 06:51:23;;;;;;;13.43;8.20;;;5.00;99.90;;;;;;5006964;28;20263;-96
2022/02/08 06:53:49;;;;;;;11.37;7.70;;;5.00;99.90;;;;;;5007708;28;20168;-96
2022/02/08 06:56:21;;;;;;;12.07;7.60;;;5.00;99.90;;;;;;5008348;28;20195;-96
2022/02/08 06:58:58;;;;;;;12.67;7.70;;;5.00;99.90;;;;;;5023139;28;20292;-96
2022/02/08 07:01:33;;;;;;;8.97;7.50;;;5.00;99.90;;;;;;5026622;28;20186;-96
2022/02/08 07:04:00;;;;;;;8.73;7.00;;;5.00;99.90;;;;;;5022234;28;20168;-96
2022/02/08 07:06:33;;;;;;;11.33;7.47;;;5.00;99.90;;;;;;5004780;28;20171;-95
2022/02/08 07:08:59;;;;;;;13.37;8.13;;;5.10;99.90;;;;;;5003232;28;20483;-95
2022/02/08 07:11:32;;;;;;;13.27;7.50;;;5.10;99.90;;;;;;5001952;28;20214;-96
2022/02/08 07:13:59;;;;;;;10.27;7.47;;;5.10;99.90;;;;;;5003472;28;20323;-94
2022/02/08 07:16:27;;;;;;;13.33;7.60;;;5.10;99.90;;;;;;5002721;28;20187;-94
2022/02/08 07:18:53;;;;;;;11.73;7.23;;;5.10;99.90;;;;;;5002757;28;20594;-96
2022/02/08 07:21:20;;;;;;;9.93;7.63;;;5.10;99.90;;;;;;4998487;28;20188;-96
2022/02/08 07:23:46;;;;;;;12.17;8.00;;;5.20;99.90;;;;;;4984373;28;20559;-95
2022/02/08 07:26:12;;;;;;;9.57;7.50;;;5.20;99.90;;;;;;4983832;28;20447;-96
2022/02/08 07:28:42;;;;;;;12.77;7.57;;;5.20;99.90;;;;;;4983846;28;20181;-96
2022/02/08 07:31:19;;;;;;;11.03;8.43;;;5.20;99.90;;;;;;4985376;28;20226;-95
2022/02/08 07:33:55;;;;;;;14.77;8.93;;;5.30;99.90;;;;;;4984304;28;20267;-95
2022/02/08 07:38:52;;;;;;;12.57;9.70;;;5.40;99.90;;;;;;4993988;28;20259;-96
2022/02/08 07:44:08;;;;;;;16.33;10.67;;;5.60;99.90;;;;;;5002223;28;20187;-93
2022/02/08 07:46:34;;;;;;;14.87;10.60;;;5.70;99.90;;;;;;5010931;28;20270;-94
2022/02/08 07:49:03;;;;;;;16.00;11.90;;;5.70;99.90;;;;;;5002203;28;20176;-94
2022/02/08 07:51:29;;;;;;;17.13;12.20;;;5.70;99.90;;;;;;5002329;28;20187;-94
2022/02/08 07:53:55;;;;;;;20.13;13.20;;;5.80;99.90;;;;;;5009475;28;20195;-96
2022/02/08 07:56:21;;;;;;;19.13;13.70;;;5.80;99.90;;;;;;5002515;28;20180;-96
2022/02/08 07:58:46;;;;;;;20.90;14.37;;;5.90;99.90;;;;;;5003580;28;20211;-95
2022/02/08 08:01:13;;;;;;;22.70;14.47;;;5.90;99.90;;;;;;5002487;28;20183;-95
2022/02/08 08:03:42;;;;;;;18.37;13.73;;;5.90;99.90;;;;;;5003013;28;20183;-94
2022/02/08 08:06:13;;;;;;;20.70;13.97;;;6.00;99.90;;;;;;5004173;28;20275;-96
2022/02/08 08:08:40;;;;;;;20.60;15.03;;;6.00;99.90;;;;;;5004028;28;20210;-96
2022/02/08 08:11:16;;;;;;;21.80;14.43;;;6.00;99.90;;;;;;5005733;28;20176;-94
2022/02/08 08:13:50;;;;;;;24.63;15.07;;;6.00;99.90;;;;;;5003647;28;20168;-95
2022/02/08 08:16:38;;;;;;;23.03;15.30;;;6.00;99.90;;;;;;5005405;28;20175;-95
2022/02/08 08:19:08;;;;;;;24.77;15.77;;;6.10;99.90;;;;;;5005460;28;20207;-94
2022/02/08 08:21:44;;;;;;;23.63;17.27;;;6.10;99.90;;;;;;5006610;28;20187;-94
2022/02/08 08:24:10;;;;;;;29.87;17.67;;;6.10;99.90;;;;;;5008365;28;20195;-95
2022/02/08 08:26:37;;;;;;;29.43;16.70;;;6.10;99.90;;;;;;5006103;28;20176;-95
2022/02/08 08:29:03;;;;;;;27.27;17.63;;;6.20;99.90;;;;;;5006314;28;20180;-95
2022/02/08 08:31:29;;;;;;;30.60;17.60;;;6.20;99.90;;;;;;5015036;28;20183;-94
2022/02/08 08:33:55;;;;;;;28.73;17.80;;;6.20;99.90;;;;;;5006661;28;20207;-96
2022/02/08 08:36:22;;;;;;;26.50;17.93;;;6.20;99.90;;;;;;5004524;28;20238;-95
2022/02/08 08:38:50;;;;;;;29.43;18.87;;;6.20;99.90;;;;;;4999843;28;20326;-94
2022/02/08 08:41:53;;;;;;;26.87;18.20;;;6.30;99.90;;;;;;5001282;28;20264;-96
2022/02/08 08:49:49;;;;;;;28.97;19.83;;;6.40;99.90;;;;;;5001628;28;20170;-95
2022/02/08 08:52:18;;;;;;;29.30;18.73;;;6.40;99.90;;;;;;5000950;28;20188;-94
2022/02/08 08:54:43;;;;;;;34.90;19.70;;;6.40;99.90;;;;;;4998491;28;20211;-95
2022/02/08 08:57:12;;;;;;;31.83;20.27;;;6.50;99.90;;;;;;4999974;28;20180;-96
2022/02/08 08:59:38;;;;;;;29.40;18.50;;;6.50;99.90;;;;;;5000432;28;20216;-95
2022/02/08 09:02:03;;;;;;;28.67;18.87;;;6.60;99.90;;;;;;4998356;28;20191;-96
2022/02/08 09:04:29;;;;;;;32.67;19.17;;;6.60;99.90;;;;;;5009541;28;20190;-94
2022/02/08 09:06:55;;;;;;;26.90;18.03;;;6.70;99.90;;;;;;5006260;28;20522;-95
2022/02/08 09:09:24;;;;;;;30.57;18.80;;;6.70;99.90;;;;;;5006762;28;20183;-94
2022/02/08 09:15:07;;;;;;;32.20;19.30;;;6.80;99.90;;;;;;5013994;28;20168;-96
2022/02/08 09:30:51;;;;;;;26.97;17.43;;;7.00;99.90;;;;;;5007599;28;20163;-94
2022/02/08 09:33:22;;;;;;;25.10;17.43;;;7.10;99.90;;;;;;5009229;28;20172;-95
2022/02/08 09:35:49;;;;;;;31.37;19.13;;;7.10;99.90;;;;;;4983908;28;20189;-94
2022/02/08 09:38:16;;;;;;;29.67;19.40;;;7.10;99.90;;;;;;4998483;28;20262;-94
2022/02/08 09:40:41;;;;;;;28.53;18.70;;;7.10;99.90;;;;;;4998726;28;20191;-95
2022/02/08 09:43:11;;;;;;;31.43;18.10;;;7.10;99.90;;;;;;5014436;28;20201;-94
2022/02/08 09:45:37;;;;;;;34.37;18.40;;;7.20;99.90;;;;;;5016810;28;20175;-94
2022/02/08 09:50:33;;;;;;;27.70;17.77;;;7.20;99.90;;;;;;5018351;28;20309;-94
2022/02/08 09:53:03;;;;;;;30.30;18.67;;;7.30;99.90;;;;;;5019621;28;20629;-94
2022/02/08 09:55:36;;;;;;;28.17;17.43;;;7.40;99.90;;;;;;5020579;28;20175;-95
2022/02/08 09:58:01;;;;;;;30.43;18.10;;;7.40;99.90;;;;;;5021913;28;20271;-96
2022/02/08 10:00:27;;;;;;;30.20;18.53;;;7.50;99.90;;;;;;5014473;28;20235;-96
2022/02/08 10:03:11;;;;;;;25.70;17.47;;;7.50;99.90;;;;;;5005935;28;20184;-96
2022/02/08 10:06:10;;;;;;;26.17;17.53;;;7.50;99.90;;;;;;5003062;28;20187;-95
2022/02/08 10:08:36;;;;;;;30.27;16.80;;;7.50;99.90;;;;;;4993501;28;20195;-96
2022/02/08 10:11:25;;;;;;;29.33;18.20;;;7.60;99.90;;;;;;5005448;28;20207;-96
2022/02/08 10:22:35;;;;;;;21.70;15.43;;;7.70;99.90;;;;;;5043744;28;20159;-94
2022/02/08 10:25:05;;;;;;;26.13;16.83;;;7.80;99.90;;;;;;5025827;28;20195;-96
2022/02/08 10:27:35;;;;;;;20.40;15.17;;;7.80;99.90;;;;;;5008054;28;20179;-96
2022/02/08 10:38:44;;;;;;;21.97;14.80;;;8.00;99.90;;;;;;5043376;28;20166;-95
2022/02/08 10:41:21;;;;;;;24.03;15.23;;;8.10;99.90;;;;;;5025835;28;20617;-96
2022/02/08 10:44:12;;;;;;;25.00;14.60;;;8.10;99.90;;;;;;5025524;28;20181;-95
2022/02/08 10:46:41;;;;;;;25.13;15.03;;;8.10;99.90;;;;;;5026167;28;20183;-95
2022/02/08 10:49:07;;;;;;;24.33;15.90;;;8.20;99.90;;;;;;5024424;28;20269;-93
2022/02/08 10:51:56;;;;;;;20.77;14.60;;;8.20;99.90;;;;;;5024152;28;20209;-94
2022/02/08 10:54:48;;;;;;;22.03;13.80;;;8.20;99.90;;;;;;5024343;28;20261;-96
2022/02/08 10:57:25;;;;;;;29.53;15.30;;;8.20;99.90;;;;;;5029665;28;20192;-94
2022/02/08 10:59:57;;;;;;;21.90;13.53;;;8.20;99.90;;;;;;5043030;28;20205;-94
2022/02/08 11:02:31;;;;;;;20.50;13.97;;;8.20;99.90;;;;;;5042881;28;20263;-94
2022/02/08 11:05:05;;;;;;;21.77;13.43;;;8.30;99.90;;;;;;5042567;28;20175;-95
2022/02/08 11:10:45;;;;;;;22.30;13.33;;;8.30;99.90;;;;;;5023512;28;20231;-96
2022/02/08 11:16:19;;;;;;;21.50;14.73;;;8.30;99.90;;;;;;5042568;28;20233;-94
2022/02/08 11:21:43;;;;;;;22.17;14.50;;;8.20;99.90;;;;;;5040847;28;20159;-96
2022/02/08 11:24:41;;;;;;;24.37;14.80;;;8.20;99.90;;;;;;5039108;28;20625;-95
2022/02/08 11:27:15;;;;;;;21.70;15.10;;;8.20;99.90;;;;;;5022241;28;20594;-96
2022/02/08 11:30:10;;;;;;;19.70;14.90;;;8.10;99.90;;;;;;5022506;28;20174;-95
2022/02/08 11:32:56;;;;;;;21.80;14.47;;;8.10;99.90;;;;;;5023976;28;20163;-95
2022/02/08 11:49:51;;;;;;;22.07;14.80;;;8.20;99.90;;;;;;5048427;28;20238;-96
2022/02/08 11:58:19;;;;;;;20.40;13.80;;;8.30;99.90;;;;;;5024929;28;20190;-96
2022/02/08 12:00:59;;;;;;;18.57;12.83;;;8.30;99.90;;;;;;5017413;28;20187;-96
2022/02/08 12:06:31;;;;;;;16.77;12.40;;;8.30;99.90;;;;;;5047690;28;20171;-94
2022/02/08 12:09:09;;;;;;;17.47;11.93;;;8.40;99.90;;;;;;5026585;28;20195;-96
2022/02/08 12:36:28;;;;;;;16.77;9.57;;;8.50;99.90;;;;;;5048313;28;20179;-96
2022/02/08 12:58:28;;;;;;;13.30;8.40;;;8.80;99.90;;;;;;5039836;28;20304;-94
2022/02/08 13:01:17;;;;;;;13.43;9.10;;;8.80;99.90;;;;;;5038958;28;20701;-96
2022/02/08 14:01:41;;;;;;;15.43;7.20;;;8.90;99.90;;;;;;5057592;22;20225;-96
2022/02/08 14:05:10;;;;;;;18.07;7.23;;;8.90;99.90;;;;;;5090584;28;20189;-96
2022/02/08 14:07:20;;;;;;;12.10;6.87;;;8.90;99.90;;;;;;5091336;28;20192;-96
2022/02/08 14:15:26;;;;;;;13.77;7.10;;;8.90;99.90;;;;;;5088542;28;20169;-94
2022/02/08 14:18:40;;;;;;;15.73;7.20;;;8.90;99.90;;;;;;5087893;22;20240;-96
2022/02/08 14:20:57;;;;;;;14.17;7.53;;;8.80;99.90;;;;;;5065928;28;20225;-95
2022/02/08 14:23:39;;;;;;;15.67;7.47;;;8.80;99.90;;;;;;5070339;28;20180;-95
2022/02/08 14:31:42;;;;;;;18.53;8.83;;;8.70;99.90;;;;;;5071767;28;20187;-96
2022/02/08 15:07:58;;;;;;;20.50;12.00;;;8.50;99.90;;;;;;5065428;28;20173;-95
2022/02/08 15:10:31;;;;;;;21.60;11.70;;;8.50;99.90;;;;;;5042508;28;20186;-95
2022/02/08 15:13:00;;;;;;;19.40;12.23;;;8.50;99.90;;;;;;5071574;28;20514;-94
2022/02/08 15:18:11;;;;;;;18.77;12.40;;;8.50;99.90;;;;;;5085680;28;20211;-95
2022/02/08 15:20:46;;;;;;;19.13;12.60;;;8.50;99.90;;;;;;5086315;28;20208;-95
2022/02/08 15:23:15;;;;;;;19.87;12.20;;;8.50;99.90;;;;;;5073096;28;20212;-95
2022/02/08 15:25:42;;;;;;;18.23;12.63;;;8.50;99.90;;;;;;5059905;28;20535;-95
2022/02/08 15:28:08;;;;;;;18.53;12.27;;;8.50;99.90;;;;;;5042965;28;20178;-95
2022/02/08 15:30:35;;;;;;;25.37;12.60;;;8.50;99.90;;;;;;5061506;28;20177;-95
2022/02/08 15:33:05;;;;;;;21.43;14.00;;;8.50;99.90;;;;;;5079849;28;20511;-95
2022/02/08 15:35:35;;;;;;;20.03;13.10;;;8.50;99.90;;;;;;5074425;28;20178;-94
2022/02/08 15:38:36;;;;;;;22.57;14.27;;;8.50;99.90;;;;;;5061425;28;20244;-95
2022/02/08 15:41:06;;;;;;;20.13;13.77;;;8.50;99.90;;;;;;5056790;28;20194;-95
2022/02/08 15:43:32;;;;;;;19.90;14.00;;;8.50;99.90;;;;;;5040320;28;20261;-95
2022/02/08 15:46:08;;;;;;;21.33;15.30;;;8.50;99.90;;;;;;5040686;28;21103;-95
2022/02/08 15:48:34;;;;;;;21.67;14.67;;;8.50;99.90;;;;;;5040758;28;20170;-96
2022/02/08 15:51:16;;;;;;;23.73;16.63;;;8.40;99.90;;;;;;5040441;28;20209;-95
2022/02/08 16:07:45;;;;;;;26.57;21.33;;;8.40;99.90;;;;;;5083653;28;20566;-96
2022/02/08 16:10:20;;;;;;;31.47;21.47;;;8.40;99.90;;;;;;5080090;28;20195;-94
2022/02/08 16:15:35;;;;;;;31.53;22.93;;;8.30;99.90;;;;;;5042228;28;20591;-95
2022/02/08 16:19:31;;;;;;;31.10;22.90;;;8.40;99.90;;;;;;5039876;28;20194;-95
2022/02/08 16:27:16;;;;;;;34.57;23.23;;;8.30;99.90;;;;;;5067251;28;20185;-96
2022/02/08 16:29:52;;;;;;;35.33;24.77;;;8.30;99.90;;;;;;5084904;28;20248;-94
2022/02/08 16:54:58;;;;;;;35.00;24.53;;;8.30;99.90;;;;;;5061919;28;20172;-94
2022/02/08 17:00:44;;;;;;;33.40;23.33;;;8.30;99.90;;;;;;5018777;28;20230;-96
2022/02/08 17:03:13;;;;;;;36.17;23.23;;;8.30;99.90;;;;;;5042659;28;20178;-95
2022/02/08 17:05:40;;;;;;;35.83;24.50;;;8.30;99.90;;;;;;5043372;28;20264;-95
2022/02/08 17:08:07;;;;;;;34.77;24.70;;;8.30;99.90;;;;;;5060079;28;20776;-95
2022/02/08 17:10:37;;;;;;;35.23;26.10;;;8.30;99.90;;;;;;5064184;28;20192;-96
2022/02/08 17:46:38;;;;;;;40.97;29.20;;;8.30;99.90;;;;;;5079252;28;20172;-96
2022/02/08 17:49:05;;;;;;;44.07;28.50;;;8.30;99.90;;;;;;5063177;28;20621;-96
2022/02/08 17:51:31;;;;;;;43.07;27.87;;;8.30;99.90;;;;;;5057431;28;20225;-96
2022/02/08 17:53:57;;;;;;;42.60;27.80;;;8.20;99.90;;;;;;5056961;28;20271;-95
2022/02/08 17:56:23;;;;;;;40.13;27.70;;;8.30;99.90;;;;;;5056556;28;20174;-96
2022/02/08 17:58:53;;;;;;;41.90;27.20;;;8.20;99.90;;;;;;5054940;28;20280;-96
2022/02/08 18:01:19;;;;;;;44.83;27.57;;;8.20;99.90;;;;;;5055785;28;20177;-96
2022/02/08 18:03:46;;;;;;;39.90;26.00;;;8.30;99.90;;;;;;5055211;28;20211;-96
2022/02/08 18:06:14;;;;;;;39.07;25.97;;;8.30;99.90;;;;;;5056111;28;20192;-95
2022/02/08 18:08:42;;;;;;;41.23;27.43;;;8.30;99.90;;;;;;5057257;28;20181;-95
2022/02/08 18:11:09;;;;;;;39.13;25.87;;;8.30;99.90;;;;;;5056069;28;20182;-95
2022/02/08 18:13:40;;;;;;;43.80;26.70;;;8.20;99.90;;;;;;5055102;28;20533;-96
2022/02/08 18:16:06;;;;;;;41.77;26.33;;;8.30;99.90;;;;;;5055463;28;20208;-96
2022/02/08 18:18:43;;;;;;;41.63;26.33;;;8.30;99.90;;;;;;5069090;28;20213;-96
2022/02/08 18:21:30;;;;;;;36.13;25.60;;;8.30;99.90;;;;;;5059901;28;20193;-95
2022/02/08 18:57:36;;;;;;;36.23;24.93;;;8.30;99.90;;;;;;5069787;28;20184;-95
2022/02/08 19:08:46;;;;;;;38.20;25.63;;;8.30;99.90;;;;;;5083330;28;20181;-95
2022/02/08 19:21:43;;;;;;;36.83;24.87;;;8.30;99.90;;;;;;5063904;28;20215;-95
2022/02/08 19:24:19;;;;;;;32.87;23.20;;;8.40;99.90;;;;;;5061037;28;20162;-96
2022/02/08 19:26:57;;;;;;;34.90;25.10;;;8.30;99.90;;;;;;5068887;28;20196;-96
2022/02/08 19:29:29;;;;;;;39.93;25.20;;;8.30;99.90;;;;;;5063601;28;20608;-95
2022/02/08 19:32:00;;;;;;;38.20;24.07;;;8.30;99.90;;;;;;5065454;28;20165;-94
2022/02/08 19:34:29;;;;;;;37.03;24.27;;;8.30;99.90;;;;;;5061249;28;20178;-94
2022/02/08 19:36:59;;;;;;;34.13;23.53;;;8.30;99.90;;;;;;5057279;28;20256;-94
2022/02/08 19:39:25;;;;;;;35.87;24.37;;;8.30;99.90;;;;;;5041818;28;20206;-96
2022/02/08 19:41:51;;;;;;;34.50;22.73;;;8.30;99.90;;;;;;5039392;28;20185;-94
2022/02/08 19:44:17;;;;;;;31.87;23.13;;;8.30;99.90;;;;;;5038558;28;20262;-94
2022/02/08 19:46:43;;;;;;;33.80;23.17;;;8.30;99.90;;;;;;5049797;28;20211;-95
2022/02/08 19:49:09;;;;;;;32.87;21.80;;;8.30;99.90;;;;;;5058976;28;20242;-94
2022/02/08 19:51:38;;;;;;;38.37;23.17;;;8.30;99.90;;;;;;5059175;28;20182;-94
2022/02/08 19:54:04;;;;;;;35.33;24.00;;;8.30;99.90;;;;;;5060363;28;20189;-94
2022/02/08 19:56:44;;;;;;;35.60;22.10;;;8.30;99.90;;;;;;5059827;28;20173;-95
2022/02/08 19:59:14;;;;;;;33.93;22.37;;;8.30;99.90;;;;;;5058107;28;20206;-94
2022/02/08 20:01:48;;;;;;;34.47;22.37;;;8.30;99.90;;;;;;5059193;28;20177;-96
2022/02/08 20:04:19;;;;;;;34.57;23.07;;;8.40;99.90;;;;;;5057941;28;20205;-95
2022/02/08 20:06:46;;;;;;;33.17;22.47;;;8.30;99.90;;;;;;5057977;28;20234;-95
2022/02/08 20:09:13;;;;;;;30.97;21.90;;;8.30;99.90;;;;;;5060043;28;20174;-95
2022/02/08 20:11:40;;;;;;;33.23;22.37;;;8.30;99.90;;;;;;5058403;28;20885;-95
2022/02/08 20:14:08;;;;;;;32.93;21.93;;;8.30;99.90;;;;;;5062495;28;20515;-96
2022/02/08 20:16:35;;;;;;;27.87;19.97;;;8.30;99.90;;;;;;5078595;28;20189;-96
2022/02/08 20:19:03;;;;;;;29.40;20.37;;;8.30;99.90;;;;;;5048087;28;20237;-95
2022/02/08 20:21:32;;;;;;;27.20;19.07;;;8.30;99.90;;;;;;5058962;28;20264;-96
2022/02/08 20:24:02;;;;;;;29.83;19.83;;;8.40;99.90;;;;;;5057727;28;20182;-96
2022/02/08 20:29:20;;;;;;;26.07;17.13;;;8.40;99.90;;;;;;5027184;28;20662;-96
2022/02/08 20:31:50;;;;;;;27.67;19.10;;;8.30;99.90;;;;;;5059316;28;20601;-95
2022/02/08 20:34:17;;;;;;;26.30;18.40;;;8.30;99.90;;;;;;5057986;28;20178;-95
2022/02/08 20:36:44;;;;;;;25.00;18.00;;;8.30;99.90;;;;;;5057734;28;20226;-96
2022/02/08 20:39:12;;;;;;;26.03;18.40;;;8.40;99.90;;;;;;5058452;28;20210;-94
2022/02/08 20:41:40;;;;;;;25.67;17.70;;;8.30;99.90;;;;;;5057956;28;20220;-95
2022/02/08 20:44:09;;;;;;;24.33;17.70;;;8.30;99.90;;;;;;5057517;28;20185;-95
2022/02/08 20:46:35;;;;;;;24.27;17.37;;;8.40;99.90;;;;;;5057887;28;20498;-94
2022/02/08 20:49:03;;;;;;;24.17;16.37;;;8.40;99.90;;;;;;5058247;28;20181;-95